Main page
METAR-TAF:

METAR-TAF

Airports :

Bou Saada Airport

Bou Saâda, Algeria

latitude: 35-20N, longitude: 004-12E, elevation: 461 m

Current weather observation

The report was made 19 minutes ago, at 07:00 UTC
Wind 3 kt from the Northwest
Temperature 18°C
Humidity 64%
Pressure 1023 hPa
Visibility 10 km or more
no clouds below 1500 m and no cumulonimbus

METAR: DAAD 080700Z 31003KT CAVOK 18/11 Q1023

Time: 08:19 (07:19 UTC)

Forecast

The report was made 14 hours and 19 minutes ago, at 17:00 UTC
Forecast valid from 07 at 18 UTC to 08 at 03 UTC
Wind 8 kt from the Northwest
Visibility 10 km or more
no clouds below 1500 m and no cumulonimbus

TAF: DAAD 071700Z 0718/0803 31008KT CAVOK

Weather observations and forecasts of more than 4000 airports (METAR and TAF reports).

The available stations are represented by yellow and red dots on the map.

Hover mouse over dot to see the name of the station.

Then click to see weather observations and forecasts.

To change the map : click on the green buttons with a black cross to zoom in, on the green button with a dash to zoom out, or on the green arrows for adjacent maps.


METAR-TAF: